Powells Point, North Carolina
Current Conditions -  °F | °C
As of 3:15 PM on Thursday 30 Oct 2014 (Local Time) from KFFA Reporting Station
Broken Clouds Broken Clouds  
Wind Chill: 64°   Ceiling: 3400
Heat Index: 64°   Visibility: 10mi
Dew Point: 51°   Wind: 6mph
Humidity: 62%   Direction: 20°NNE
Pressure: 29.96"   Gusts: NA
Location:  36.16°N, 75.86°W
Report Text: KFFA 301915Z AUTO 02005KT 10SM BKN034 18/10 A2996 RMK AO2 T01760103
Loading
Personal Weather Stations






























Interactive Weather Map
Tropical Storm Tracking
New forecast layout! Learn more

10-Day Weather Forecast

Advertisements
Track Severe Weather on mobile